createdAt,value
2022-11-22T00:01:10.804Z,2.10
2022-11-22T00:03:38.821Z,2.10
2022-11-22T00:06:06.833Z,2.10
2022-11-22T00:08:34.889Z,2.10
2022-11-22T00:11:04.240Z,2.10
2022-11-22T00:13:32.139Z,2.10
2022-11-22T00:16:01.015Z,2.10
2022-11-22T00:18:31.542Z,2.10
2022-11-22T00:21:06.293Z,2.10
2022-11-22T00:23:34.456Z,2.10
2022-11-22T00:26:03.850Z,2.10
2022-11-22T00:28:31.742Z,2.10
2022-11-22T00:30:59.730Z,2.00
2022-11-22T00:33:27.680Z,2.10
2022-11-22T00:35:55.603Z,2.00
2022-11-22T00:38:23.574Z,2.00
2022-11-22T00:40:51.478Z,2.00
2022-11-22T00:43:20.818Z,2.00
2022-11-22T00:45:48.803Z,2.00
2022-11-22T00:48:16.921Z,2.00
2022-11-22T00:50:44.844Z,2.00
2022-11-22T00:53:12.831Z,2.00
2022-11-22T00:55:40.737Z,2.00
2022-11-22T00:58:08.830Z,2.00
2022-11-22T01:00:38.244Z,2.10
2022-11-22T01:03:06.439Z,2.10
2022-11-22T01:05:34.376Z,2.10
2022-11-22T01:08:02.352Z,2.20
2022-11-22T01:10:30.361Z,2.20
2022-11-22T01:12:58.785Z,2.10
2022-11-22T01:15:26.715Z,2.10
2022-11-22T01:17:56.040Z,2.10
2022-11-22T01:20:24.423Z,2.20
2022-11-22T01:22:52.344Z,2.20
2022-11-22T01:25:20.350Z,2.20
2022-11-22T01:27:50.871Z,2.20
2022-11-22T01:30:19.336Z,2.20
2022-11-22T01:32:47.376Z,2.30
2022-11-22T01:35:16.851Z,2.30
2022-11-22T01:37:44.962Z,2.30
2022-11-22T01:40:13.293Z,2.40
2022-11-22T01:42:45.063Z,2.40
2022-11-22T01:45:39.258Z,2.40
2022-11-22T01:48:14.091Z,2.40
2022-11-22T01:50:47.933Z,2.50
2022-11-22T01:53:18.561Z,2.50
2022-11-22T01:55:47.472Z,2.50
2022-11-22T01:58:16.901Z,2.50
2022-11-22T02:00:45.349Z,2.60
2022-11-22T02:03:16.811Z,2.60
2022-11-22T02:05:46.488Z,2.60
2022-11-22T02:08:20.650Z,2.60
2022-11-22T02:10:52.887Z,2.60
2022-11-22T02:13:22.759Z,2.60
2022-11-22T02:15:51.468Z,2.70
2022-11-22T02:18:19.416Z,2.60
2022-11-22T02:20:48.926Z,2.60
2022-11-22T02:23:23.774Z,2.60
2022-11-22T02:25:56.087Z,2.50
2022-11-22T02:28:24.114Z,2.50
2022-11-22T02:30:52.059Z,2.40
2022-11-22T02:33:20.005Z,2.40
2022-11-22T02:35:48.607Z,2.40
2022-11-22T02:38:20.793Z,2.30
2022-11-22T02:40:58.127Z,2.30
2022-11-22T02:43:31.094Z,2.20
2022-11-22T02:46:04.837Z,2.20
2022-11-22T02:48:32.757Z,2.20
2022-11-22T02:51:00.827Z,2.20
2022-11-22T02:53:31.569Z,2.10
2022-11-22T02:55:59.586Z,2.10
2022-11-22T02:58:29.027Z,2.10
2022-11-22T03:00:57.134Z,2.10
2022-11-22T03:03:25.071Z,2.00
2022-11-22T03:05:53.166Z,2.00
2022-11-22T03:08:21.180Z,2.00
2022-11-22T03:10:49.098Z,1.90
2022-11-22T03:13:17.064Z,1.90
2022-11-22T03:15:49.452Z,1.90
2022-11-22T03:18:17.514Z,1.90
2022-11-22T03:20:45.488Z,1.90
2022-11-22T03:23:13.475Z,2.00
2022-11-22T03:25:41.851Z,2.00
2022-11-22T03:28:09.856Z,2.10
2022-11-22T03:30:41.037Z,2.10
2022-11-22T03:33:10.708Z,2.10
2022-11-22T03:35:39.005Z,2.10
2022-11-22T03:38:07.369Z,2.10
2022-11-22T03:40:35.690Z,2.10
2022-11-22T03:43:04.194Z,2.10
2022-11-22T03:45:32.246Z,2.10
2022-11-22T03:48:00.268Z,2.10
2022-11-22T03:50:30.861Z,2.00
2022-11-22T03:52:58.837Z,2.00
2022-11-22T03:55:26.809Z,2.00
2022-11-22T03:57:55.108Z,2.10
2022-11-22T04:00:23.557Z,2.10
2022-11-22T04:02:52.263Z,2.10
2022-11-22T04:05:20.381Z,2.10
2022-11-22T04:07:55.595Z,2.00
2022-11-22T04:10:23.863Z,2.10
2022-11-22T04:12:52.696Z,2.20
2022-11-22T04:15:19.657Z,2.20
2022-11-22T04:17:48.190Z,2.20
2022-11-22T04:20:38.040Z,2.30
2022-11-22T04:23:09.065Z,2.30
2022-11-22T04:25:38.252Z,2.30
2022-11-22T04:28:07.227Z,2.30
2022-11-22T04:30:53.040Z,2.30
2022-11-22T04:33:21.508Z,2.20
2022-11-22T04:35:50.334Z,2.20
2022-11-22T04:38:20.338Z,2.20
2022-11-22T04:40:48.419Z,2.20
2022-11-22T04:43:38.349Z,2.10
2022-11-22T04:46:06.392Z,2.10
2022-11-22T04:48:34.611Z,2.20
2022-11-22T04:51:20.996Z,2.20
2022-11-22T04:53:50.764Z,2.20
2022-11-22T04:56:18.931Z,2.30
2022-11-22T04:58:47.098Z,2.20
2022-11-22T05:01:15.310Z,2.30
2022-11-22T05:03:43.480Z,2.30
2022-11-22T05:06:14.558Z,2.30
2022-11-22T05:08:42.603Z,2.30
2022-11-22T05:11:11.897Z,2.30
2022-11-22T05:13:41.569Z,2.30
2022-11-22T05:16:12.472Z,2.40
2022-11-22T05:18:41.094Z,2.40
2022-11-22T05:21:10.949Z,2.40
2022-11-22T05:23:56.063Z,2.50
2022-11-22T05:26:28.489Z,2.50
2022-11-22T05:28:58.052Z,2.50
2022-11-22T05:31:28.261Z,2.50
2022-11-22T05:33:58.253Z,2.50
2022-11-22T05:36:26.647Z,2.50
2022-11-22T05:38:55.690Z,2.60
2022-11-22T05:41:24.969Z,2.60
2022-11-22T05:43:55.284Z,2.60
2022-11-22T05:46:26.197Z,2.70
2022-11-22T05:48:56.211Z,2.70
2022-11-22T05:51:32.208Z,2.70
2022-11-22T05:54:04.580Z,2.70
2022-11-22T05:56:34.013Z,2.70
2022-11-22T05:59:02.170Z,2.70
2022-11-22T06:01:30.147Z,2.80
2022-11-22T06:03:58.165Z,2.80
2022-11-22T06:06:26.361Z,2.80
2022-11-22T06:08:54.600Z,2.80
2022-11-22T06:11:24.777Z,2.80
2022-11-22T06:13:56.449Z,2.80
2022-11-22T06:16:25.292Z,2.80
2022-11-22T06:18:55.109Z,2.80
2022-11-22T06:21:26.503Z,2.90
2022-11-22T06:23:55.749Z,2.80
2022-11-22T06:26:25.089Z,2.90
2022-11-22T06:28:55.961Z,2.90
2022-11-22T06:31:26.406Z,3.00
2022-11-22T06:33:55.203Z,2.90
2022-11-22T06:36:25.246Z,3.00
2022-11-22T06:38:53.960Z,3.00
2022-11-22T06:41:23.964Z,3.00
2022-11-22T06:43:56.074Z,3.00
2022-11-22T06:46:25.874Z,3.00
2022-11-22T06:48:54.425Z,3.00
2022-11-22T06:51:24.474Z,3.10
2022-11-22T06:53:54.797Z,3.10
2022-11-22T06:56:25.039Z,3.00
2022-11-22T06:58:55.453Z,3.00
2022-11-22T07:01:25.708Z,3.00
2022-11-22T07:03:57.962Z,3.00
2022-11-22T07:06:27.807Z,3.10
2022-11-22T07:08:55.997Z,3.10
2022-11-22T07:11:25.567Z,3.20
2022-11-22T07:13:57.294Z,3.30
2022-11-22T07:16:29.811Z,3.30
2022-11-22T07:19:00.542Z,3.30
2022-11-22T07:21:28.976Z,3.40
2022-11-22T07:23:57.169Z,3.40
2022-11-22T07:26:26.668Z,3.40
2022-11-22T07:28:56.997Z,3.40
2022-11-22T07:31:26.106Z,3.40
2022-11-22T07:33:54.310Z,3.40
2022-11-22T07:36:23.435Z,3.40
2022-11-22T07:38:52.172Z,3.50
2022-11-22T07:41:22.059Z,3.50
2022-11-22T07:43:50.297Z,3.50
2022-11-22T07:46:23.378Z,3.60
2022-11-22T07:48:51.898Z,3.60
2022-11-22T07:51:20.205Z,3.60
2022-11-22T07:53:48.276Z,3.60
2022-11-22T07:56:16.381Z,3.60
2022-11-22T07:58:44.551Z,3.70
2022-11-22T08:01:14.467Z,3.70
2022-11-22T08:03:44.487Z,3.80
2022-11-22T08:06:14.280Z,3.90
2022-11-22T08:08:42.496Z,3.90
2022-11-22T08:11:11.951Z,3.90
2022-11-22T08:13:41.266Z,4.00
2022-11-22T08:16:12.509Z,4.10
2022-11-22T08:18:42.283Z,4.10
2022-11-22T08:21:14.170Z,4.20
2022-11-22T08:23:43.674Z,4.20
2022-11-22T08:26:14.152Z,4.30
2022-11-22T08:28:42.845Z,4.30
2022-11-22T08:31:13.284Z,4.40
2022-11-22T08:33:41.415Z,4.50
2022-11-22T08:36:11.603Z,4.50
2022-11-22T08:38:39.638Z,4.50
2022-11-22T08:41:08.223Z,4.60
2022-11-22T08:43:36.320Z,4.60
2022-11-22T08:46:05.100Z,4.70
2022-11-22T08:48:35.656Z,4.70
2022-11-22T08:51:05.447Z,4.70
2022-11-22T08:53:36.456Z,4.80
2022-11-22T08:56:06.398Z,4.80
2022-11-22T08:58:35.400Z,4.80
2022-11-22T09:01:07.130Z,4.80
2022-11-22T09:03:35.830Z,4.80
2022-11-22T09:09:03.259Z,4.80
2022-11-22T09:11:37.062Z,4.80
2022-11-22T09:14:05.083Z,4.90
2022-11-22T09:16:33.752Z,4.90
2022-11-22T09:19:01.625Z,4.90
2022-11-22T09:21:29.680Z,4.90
2022-11-22T09:23:58.959Z,4.90
2022-11-22T09:26:26.993Z,4.90
2022-11-22T09:28:55.385Z,5.00
2022-11-22T09:31:24.425Z,5.00
2022-11-22T09:33:52.778Z,5.00
2022-11-22T09:36:22.316Z,5.00
2022-11-22T09:38:51.940Z,4.90
2022-11-22T09:41:42.139Z,4.90
2022-11-22T09:44:20.896Z,4.90
2022-11-22T09:46:54.425Z,5.00
2022-11-22T09:49:29.748Z,5.00
2022-11-22T09:52:05.425Z,5.00
2022-11-22T09:54:40.369Z,5.00
2022-11-22T09:57:16.424Z,5.00
2022-11-22T09:59:48.073Z,5.00
2022-11-22T10:02:21.342Z,5.00
2022-11-22T10:04:55.873Z,5.10
2022-11-22T10:07:30.193Z,5.10
2022-11-22T10:10:04.733Z,5.10
2022-11-22T10:12:41.228Z,5.10
2022-11-22T10:15:17.102Z,5.10
2022-11-22T10:17:53.813Z,5.10
2022-11-22T10:20:23.387Z,5.20
2022-11-22T10:22:51.660Z,5.20
2022-11-22T10:25:21.917Z,5.20
2022-11-22T10:28:00.405Z,5.20
2022-11-22T10:30:34.526Z,5.20
2022-11-22T10:33:14.134Z,5.20
2022-11-22T10:36:05.183Z,5.20
2022-11-22T10:39:15.246Z,5.20
2022-11-22T10:41:53.453Z,5.30
2022-11-22T10:44:31.971Z,5.30
2022-11-22T10:47:11.786Z,5.30
2022-11-22T10:49:53.058Z,5.40
2022-11-22T10:52:31.713Z,5.40
2022-11-22T12:49:13.208Z,7.40
2022-11-22T12:51:46.997Z,7.40
2022-11-22T12:54:19.345Z,7.50
2022-11-22T12:56:50.730Z,7.50
2022-11-22T12:59:24.928Z,7.40
2022-11-22T13:02:04.088Z,7.40
2022-11-22T13:04:42.279Z,7.30
2022-11-22T13:07:17.409Z,7.20
2022-11-22T13:10:17.216Z,7.20
2022-11-22T13:12:46.657Z,7.00
2022-11-22T13:15:18.017Z,7.00
2022-11-22T13:17:46.707Z,7.00
2022-11-22T13:20:20.663Z,6.90
2022-11-22T13:23:00.276Z,7.00
2022-11-22T13:25:54.717Z,6.90
2022-11-22T13:28:26.738Z,6.90
2022-11-22T13:31:14.566Z,6.90
2022-11-22T13:33:52.546Z,6.80
2022-11-22T13:36:39.160Z,6.80
2022-11-22T13:39:13.486Z,6.80
2022-11-22T13:41:49.863Z,6.70
2022-11-22T13:44:27.681Z,6.70
2022-11-22T13:46:58.668Z,6.70
2022-11-22T13:49:40.026Z,6.60
2022-11-22T13:52:50.732Z,6.70
2022-11-22T13:55:40.417Z,6.70
2022-11-22T13:58:52.717Z,6.70
2022-11-22T14:01:58.473Z,6.70
2022-11-22T14:04:43.612Z,6.70
2022-11-22T14:07:39.876Z,6.70
2022-11-22T14:10:37.597Z,6.60
2022-11-22T14:13:29.315Z,6.60
2022-11-22T14:16:06.631Z,6.50
2022-11-22T14:18:58.014Z,6.50
2022-11-22T14:21:47.437Z,6.40
2022-11-22T14:24:29.986Z,6.40
2022-11-22T14:27:03.281Z,6.40
2022-11-22T14:30:04.762Z,6.30
2022-11-22T14:32:50.152Z,6.30
2022-11-22T14:35:35.778Z,6.30
2022-11-22T14:38:29.520Z,6.20
2022-11-22T14:41:43.113Z,6.20
2022-11-22T14:44:17.015Z,6.20
2022-11-22T14:46:54.325Z,6.20
2022-11-22T14:49:43.728Z,6.10
2022-11-22T14:55:18.348Z,6.10
2022-11-22T14:57:52.827Z,6.00
2022-11-22T15:00:22.658Z,6.00
2022-11-22T15:03:49.503Z,6.00
2022-11-22T15:09:11.525Z,5.90
2022-11-22T15:09:54.114Z,5.90
2022-11-22T15:12:52.271Z,5.80
2022-11-22T15:59:11.064Z,5.50
2022-11-22T16:01:41.385Z,5.50
2022-11-22T16:04:22.778Z,5.50
2022-11-22T16:06:53.344Z,5.50
2022-11-22T16:09:26.469Z,5.40
2022-11-22T16:12:01.208Z,5.40
2022-11-22T16:14:49.698Z,5.40
2022-11-22T16:17:29.712Z,5.40
2022-11-22T16:20:27.431Z,5.30
2022-11-22T16:23:17.172Z,5.30
2022-11-22T16:25:47.766Z,5.30
2022-11-22T16:28:28.799Z,5.30
2022-11-22T16:30:58.614Z,5.30
2022-11-22T16:33:27.023Z,5.20
2022-11-22T16:35:56.158Z,5.20
2022-11-22T16:38:26.666Z,5.30
2022-11-22T16:40:56.982Z,5.20
2022-11-22T16:43:27.518Z,5.20
2022-11-22T16:45:56.084Z,5.20
2022-11-22T16:48:32.654Z,5.20
2022-11-22T16:51:04.712Z,5.20
2022-11-22T16:53:41.063Z,5.20
2022-11-22T16:56:10.069Z,5.10
2022-11-22T16:58:38.089Z,5.10
2022-11-22T17:01:06.368Z,5.10
2022-11-22T17:03:37.819Z,5.20
2022-11-22T17:06:06.148Z,5.20
2022-11-22T17:08:34.185Z,5.20
2022-11-22T17:11:03.773Z,5.20
2022-11-22T17:13:31.850Z,5.30
2022-11-22T17:15:59.915Z,5.30
2022-11-22T17:18:28.009Z,5.30
2022-11-22T17:20:56.263Z,5.30
2022-11-22T17:23:30.194Z,5.30
2022-11-22T17:25:58.317Z,5.30
2022-11-22T17:28:27.832Z,5.30
2022-11-22T17:30:58.898Z,5.20
2022-11-22T17:33:26.962Z,5.10
2022-11-22T17:35:55.653Z,5.10
2022-11-22T17:38:23.784Z,5.10
2022-11-22T17:41:00.012Z,5.10
2022-11-22T17:43:29.708Z,5.00
2022-11-22T17:45:57.794Z,5.00
2022-11-22T17:48:25.906Z,5.00
2022-11-22T17:50:54.138Z,5.00
2022-11-22T17:53:22.265Z,5.00
2022-11-22T17:58:40.350Z,5.00
2022-11-22T18:01:10.283Z,5.00
2022-11-22T18:03:39.120Z,5.00
2022-11-22T18:06:08.000Z,5.00
2022-11-22T18:08:36.977Z,5.10
2022-11-22T18:11:05.885Z,5.10
2022-11-22T18:13:35.852Z,5.10
2022-11-22T18:16:07.795Z,5.10
2022-11-22T18:21:26.161Z,5.10
2022-11-22T18:23:54.457Z,5.10
2022-11-22T18:32:04.165Z,5.10
2022-11-22T18:34:32.469Z,5.20
2022-11-22T18:37:03.015Z,5.20
2022-11-22T18:39:34.298Z,5.20
2022-11-22T18:42:03.270Z,5.20
2022-11-22T18:44:31.293Z,5.10
2022-11-22T18:46:59.745Z,5.20
2022-11-22T18:49:29.518Z,5.10
2022-11-22T18:51:57.967Z,5.10
2022-11-22T18:54:26.195Z,5.10
2022-11-22T18:56:54.262Z,5.20
2022-11-22T18:59:22.479Z,5.20
2022-11-22T19:01:50.863Z,5.20
2022-11-22T19:04:19.033Z,5.20
2022-11-22T19:06:49.225Z,5.20
2022-11-22T19:09:17.398Z,5.20
2022-11-22T19:11:45.727Z,5.20
2022-11-22T19:14:13.856Z,5.20
2022-11-22T19:16:42.055Z,5.20
2022-11-22T19:19:12.131Z,5.20
2022-11-22T19:21:40.322Z,5.20
2022-11-22T19:24:10.213Z,5.20
2022-11-22T19:26:38.347Z,5.20
2022-11-22T19:29:06.510Z,5.20
2022-11-22T19:31:34.533Z,5.30
2022-11-22T19:34:03.938Z,5.30
2022-11-22T19:36:34.415Z,5.30
2022-11-22T19:39:04.429Z,5.30
2022-11-22T19:41:33.946Z,5.30
2022-11-22T19:44:02.087Z,5.30
2022-11-22T19:46:31.113Z,5.30
2022-11-22T19:49:01.105Z,5.30
2022-11-22T19:51:30.814Z,5.30
2022-11-22T19:54:02.297Z,5.30
2022-11-22T19:56:34.022Z,5.30
2022-11-22T19:59:04.042Z,5.30
2022-11-22T20:01:34.734Z,5.30
2022-11-22T20:04:04.923Z,5.30
2022-11-22T20:06:34.374Z,5.30
2022-11-22T20:09:03.787Z,5.30
2022-11-22T20:11:35.845Z,5.20
2022-11-22T20:14:04.960Z,5.20
2022-11-22T20:16:33.834Z,5.20
2022-11-22T20:19:04.497Z,5.20
2022-11-22T20:21:33.947Z,5.20
2022-11-22T20:24:02.687Z,5.20
2022-11-22T20:26:31.683Z,5.20
2022-11-22T20:29:02.960Z,5.30
2022-11-22T20:31:33.335Z,5.30
2022-11-22T20:34:02.273Z,5.30
2022-11-22T20:36:32.389Z,5.30
2022-11-22T20:39:06.993Z,5.30
2022-11-22T20:41:38.377Z,5.20
2022-11-22T20:44:08.378Z,5.30
2022-11-22T20:46:38.283Z,5.30
2022-11-22T20:49:06.418Z,5.30
2022-11-22T20:51:35.987Z,5.30
2022-11-22T20:54:04.267Z,5.30
2022-11-22T20:56:32.454Z,5.30
2022-11-22T20:59:02.883Z,5.30
2022-11-22T21:01:33.043Z,5.30
2022-11-22T21:04:01.502Z,5.30
2022-11-22T21:06:29.931Z,5.30
2022-11-22T21:08:58.034Z,5.20
2022-11-22T21:11:28.260Z,5.20
2022-11-22T21:13:58.447Z,5.20
2022-11-22T21:16:28.248Z,5.20
2022-11-22T21:18:59.537Z,5.30
2022-11-22T21:21:28.507Z,5.20
2022-11-22T21:24:00.524Z,5.20
2022-11-22T21:26:28.784Z,5.20
2022-11-22T21:28:57.323Z,5.20
2022-11-22T21:31:25.676Z,5.20
2022-11-22T21:33:54.029Z,5.20
2022-11-22T21:36:23.777Z,5.20
2022-11-22T21:38:52.092Z,5.20
2022-11-22T21:44:10.998Z,5.20
2022-11-22T21:46:39.463Z,5.20
2022-11-22T21:49:08.200Z,5.20
2022-11-22T21:51:37.669Z,5.20
2022-11-22T21:54:06.208Z,5.20
2022-11-22T21:56:34.462Z,5.10
2022-11-22T21:59:02.915Z,5.10
2022-11-22T22:01:31.305Z,5.10
2022-11-22T22:03:59.519Z,5.20
2022-11-22T22:06:27.551Z,5.10
2022-11-22T22:08:56.990Z,5.20
2022-11-22T22:11:25.303Z,5.10
2022-11-22T22:13:54.975Z,5.10
2022-11-22T22:16:25.875Z,5.10
2022-11-22T22:18:54.534Z,5.10
2022-11-22T22:21:22.623Z,5.10
2022-11-22T22:23:50.736Z,5.10
2022-11-22T22:26:20.316Z,5.10
2022-11-22T22:28:48.500Z,5.10
2022-11-22T22:31:21.547Z,5.00
2022-11-22T22:33:51.551Z,5.10
2022-11-22T22:36:20.038Z,5.00
2022-11-22T22:38:48.170Z,5.00
2022-11-22T22:41:16.327Z,5.00
2022-11-22T22:43:47.073Z,5.00
2022-11-22T22:46:17.148Z,5.00
2022-11-22T22:48:45.697Z,5.00
2022-11-22T22:51:16.485Z,4.90
2022-11-22T22:53:45.786Z,4.90
2022-11-22T22:56:15.161Z,4.90
2022-11-22T22:58:45.279Z,4.90
2022-11-22T23:01:15.495Z,4.90
2022-11-22T23:03:43.949Z,4.90
2022-11-22T23:06:13.293Z,4.90
2022-11-22T23:08:44.899Z,4.80
2022-11-22T23:11:13.898Z,4.80
2022-11-22T23:13:43.744Z,4.80
2022-11-22T23:16:15.909Z,4.80
2022-11-22T23:18:45.910Z,4.80
2022-11-22T23:21:15.310Z,4.80
2022-11-22T23:23:43.428Z,4.90
2022-11-22T23:26:13.395Z,4.80
2022-11-22T23:28:41.488Z,4.80
2022-11-22T23:31:12.567Z,4.80
2022-11-22T23:33:40.988Z,4.80
2022-11-22T23:36:11.288Z,4.80
2022-11-22T23:38:39.728Z,4.80
2022-11-22T23:41:08.043Z,4.80
2022-11-22T23:43:36.220Z,4.80
2022-11-22T23:46:04.420Z,4.80
2022-11-22T23:48:33.937Z,4.80
2022-11-22T23:51:04.715Z,4.80
2022-11-22T23:53:32.805Z,4.80
2022-11-22T23:56:06.722Z,4.80
2022-11-22T23:58:34.905Z,4.80
